sensor_id;sensor_type;location;lat;lon;timestamp;P1;durP1;ratioP1;P2;durP2;ratioP2
57309;SDS011;43153;50.984;18.204;2023-02-05T00:01:46;10.00;;;2.90;;
57309;SDS011;43153;50.984;18.204;2023-02-05T00:04:12;13.40;;;3.00;;
57309;SDS011;43153;50.984;18.204;2023-02-05T00:06:39;13.00;;;3.30;;
57309;SDS011;43153;50.984;18.204;2023-02-05T00:09:05;10.20;;;3.10;;
57309;SDS011;43153;50.984;18.204;2023-02-05T00:11:31;10.00;;;3.30;;
57309;SDS011;43153;50.984;18.204;2023-02-05T00:13:57;11.10;;;3.00;;
57309;SDS011;43153;50.984;18.204;2023-02-05T00:16:24;15.80;;;4.20;;
57309;SDS011;43153;50.984;18.204;2023-02-05T00:18:52;10.10;;;2.80;;
57309;SDS011;43153;50.984;18.204;2023-02-05T00:21:19;8.50;;;2.90;;
57309;SDS011;43153;50.984;18.204;2023-02-05T00:23:47;12.60;;;3.20;;
57309;SDS011;43153;50.984;18.204;2023-02-05T00:26:13;16.40;;;3.20;;
57309;SDS011;43153;50.984;18.204;2023-02-05T00:28:39;13.30;;;3.60;;
57309;SDS011;43153;50.984;18.204;2023-02-05T00:31:07;14.10;;;3.30;;
57309;SDS011;43153;50.984;18.204;2023-02-05T00:33:38;13.00;;;3.90;;
57309;SDS011;43153;50.984;18.204;2023-02-05T00:36:04;11.70;;;3.90;;
57309;SDS011;43153;50.984;18.204;2023-02-05T00:38:31;9.00;;;2.90;;
57309;SDS011;43153;50.984;18.204;2023-02-05T00:40:59;10.10;;;2.80;;
57309;SDS011;43153;50.984;18.204;2023-02-05T00:43:25;9.40;;;3.20;;
57309;SDS011;43153;50.984;18.204;2023-02-05T00:45:52;9.70;;;3.50;;
57309;SDS011;43153;50.984;18.204;2023-02-05T00:48:19;11.60;;;4.20;;
57309;SDS011;43153;50.984;18.204;2023-02-05T00:50:46;13.20;;;3.90;;
57309;SDS011;43153;50.984;18.204;2023-02-05T00:53:14;10.10;;;3.80;;
57309;SDS011;43153;50.984;18.204;2023-02-05T00:55:40;12.20;;;4.10;;
57309;SDS011;43153;50.984;18.204;2023-02-05T00:58:06;10.60;;;3.80;;
57309;SDS011;43153;50.984;18.204;2023-02-05T01:00:32;11.30;;;3.60;;
57309;SDS011;43153;50.984;18.204;2023-02-05T01:02:59;10.50;;;3.10;;
57309;SDS011;43153;50.984;18.204;2023-02-05T01:05:26;11.40;;;3.70;;
57309;SDS011;43153;50.984;18.204;2023-02-05T01:07:55;14.20;;;4.20;;
57309;SDS011;43153;50.984;18.204;2023-02-05T01:10:22;10.60;;;4.00;;
57309;SDS011;43153;50.984;18.204;2023-02-05T01:12:49;9.20;;;2.90;;
57309;SDS011;43153;50.984;18.204;2023-02-05T01:15:16;8.80;;;3.40;;
57309;SDS011;43153;50.984;18.204;2023-02-05T01:17:42;11.10;;;4.20;;
57309;SDS011;43153;50.984;18.204;2023-02-05T01:20:09;10.20;;;2.80;;
57309;SDS011;43153;50.984;18.204;2023-02-05T01:22:36;8.50;;;2.90;;
57309;SDS011;43153;50.984;18.204;2023-02-05T01:25:03;11.60;;;3.50;;
57309;SDS011;43153;50.984;18.204;2023-02-05T01:27:33;9.00;;;2.70;;
57309;SDS011;43153;50.984;18.204;2023-02-05T01:29:59;10.60;;;2.70;;
57309;SDS011;43153;50.984;18.204;2023-02-05T01:32:26;9.50;;;3.10;;
57309;SDS011;43153;50.984;18.204;2023-02-05T01:34:54;12.40;;;3.70;;
57309;SDS011;43153;50.984;18.204;2023-02-05T01:37:23;10.20;;;2.90;;
57309;SDS011;43153;50.984;18.204;2023-02-05T01:39:49;10.80;;;3.10;;
57309;SDS011;43153;50.984;18.204;2023-02-05T01:42:20;8.40;;;2.90;;
57309;SDS011;43153;50.984;18.204;2023-02-05T01:47:53;9.10;;;3.00;;
57309;SDS011;43153;50.984;18.204;2023-02-05T01:50:26;9.30;;;3.10;;
57309;SDS011;43153;50.984;18.204;2023-02-05T01:52:57;10.40;;;3.80;;
57309;SDS011;43153;50.984;18.204;2023-02-05T01:55:29;10.00;;;2.90;;
57309;SDS011;43153;50.984;18.204;2023-02-05T01:57:55;7.60;;;2.60;;
57309;SDS011;43153;50.984;18.204;2023-02-05T02:00:23;8.00;;;2.60;;
57309;SDS011;43153;50.984;18.204;2023-02-05T02:02:50;9.30;;;2.90;;
57309;SDS011;43153;50.984;18.204;2023-02-05T02:05:16;6.10;;;2.70;;
57309;SDS011;43153;50.984;18.204;2023-02-05T02:07:43;12.00;;;3.90;;
57309;SDS011;43153;50.984;18.204;2023-02-05T02:10:10;11.60;;;3.30;;
57309;SDS011;43153;50.984;18.204;2023-02-05T02:12:39;6.60;;;2.40;;
57309;SDS011;43153;50.984;18.204;2023-02-05T02:15:08;8.50;;;3.60;;
57309;SDS011;43153;50.984;18.204;2023-02-05T02:17:38;12.40;;;4.30;;
57309;SDS011;43153;50.984;18.204;2023-02-05T02:20:06;10.70;;;3.40;;
57309;SDS011;43153;50.984;18.204;2023-02-05T02:28:21;10.70;;;3.20;;
57309;SDS011;43153;50.984;18.204;2023-02-05T02:38:40;9.60;;;3.40;;
57309;SDS011;43153;50.984;18.204;2023-02-05T02:43:44;9.60;;;3.30;;
57309;SDS011;43153;50.984;18.204;2023-02-05T02:46:18;10.40;;;3.20;;
57309;SDS011;43153;50.984;18.204;2023-02-05T02:48:48;11.50;;;3.00;;
57309;SDS011;43153;50.984;18.204;2023-02-05T02:51:15;9.70;;;3.20;;
57309;SDS011;43153;50.984;18.204;2023-02-05T02:53:44;8.90;;;3.40;;
57309;SDS011;43153;50.984;18.204;2023-02-05T02:56:12;9.20;;;3.50;;
57309;SDS011;43153;50.984;18.204;2023-02-05T02:58:43;15.10;;;4.40;;
57309;SDS011;43153;50.984;18.204;2023-02-05T03:01:12;8.70;;;3.20;;
57309;SDS011;43153;50.984;18.204;2023-02-05T03:03:41;12.40;;;4.00;;
57309;SDS011;43153;50.984;18.204;2023-02-05T03:06:10;11.10;;;3.40;;
57309;SDS011;43153;50.984;18.204;2023-02-05T03:08:44;9.60;;;3.90;;
57309;SDS011;43153;50.984;18.204;2023-02-05T03:11:19;9.60;;;3.30;;
57309;SDS011;43153;50.984;18.204;2023-02-05T03:13:45;10.40;;;4.00;;
57309;SDS011;43153;50.984;18.204;2023-02-05T03:16:12;11.10;;;3.60;;
57309;SDS011;43153;50.984;18.204;2023-02-05T03:18:39;10.50;;;3.30;;
57309;SDS011;43153;50.984;18.204;2023-02-05T03:21:08;10.00;;;4.00;;
57309;SDS011;43153;50.984;18.204;2023-02-05T03:23:41;9.00;;;3.00;;
57309;SDS011;43153;50.984;18.204;2023-02-05T03:26:25;9.10;;;3.50;;
57309;SDS011;43153;50.984;18.204;2023-02-05T03:28:53;10.90;;;4.00;;
57309;SDS011;43153;50.984;18.204;2023-02-05T03:31:24;10.90;;;4.10;;
57309;SDS011;43153;50.984;18.204;2023-02-05T03:42:32;8.30;;;3.20;;
57309;SDS011;43153;50.984;18.204;2023-02-05T03:47:37;9.50;;;3.70;;
57309;SDS011;43153;50.984;18.204;2023-02-05T03:55:38;8.60;;;3.40;;
57309;SDS011;43153;50.984;18.204;2023-02-05T03:58:13;10.30;;;3.20;;
57309;SDS011;43153;50.984;18.204;2023-02-05T04:00:50;11.50;;;2.80;;
57309;SDS011;43153;50.984;18.204;2023-02-05T04:03:16;9.30;;;2.90;;
57309;SDS011;43153;50.984;18.204;2023-02-05T04:05:42;12.60;;;3.70;;
57309;SDS011;43153;50.984;18.204;2023-02-05T04:08:10;11.80;;;3.50;;
57309;SDS011;43153;50.984;18.204;2023-02-05T04:10:36;11.90;;;4.20;;
57309;SDS011;43153;50.984;18.204;2023-02-05T04:13:05;11.00;;;3.40;;
57309;SDS011;43153;50.984;18.204;2023-02-05T04:15:31;10.30;;;2.90;;
57309;SDS011;43153;50.984;18.204;2023-02-05T04:17:57;7.90;;;2.70;;
57309;SDS011;43153;50.984;18.204;2023-02-05T04:20:24;10.40;;;2.30;;
57309;SDS011;43153;50.984;18.204;2023-02-05T04:22:50;12.90;;;2.90;;
57309;SDS011;43153;50.984;18.204;2023-02-05T04:25:16;10.50;;;3.10;;
57309;SDS011;43153;50.984;18.204;2023-02-05T04:27:43;10.00;;;2.70;;
57309;SDS011;43153;50.984;18.204;2023-02-05T04:30:11;9.90;;;3.00;;
57309;SDS011;43153;50.984;18.204;2023-02-05T04:32:38;7.70;;;2.40;;
57309;SDS011;43153;50.984;18.204;2023-02-05T04:35:04;10.60;;;2.90;;
57309;SDS011;43153;50.984;18.204;2023-02-05T04:37:30;12.60;;;4.10;;
57309;SDS011;43153;50.984;18.204;2023-02-05T04:39:56;8.60;;;3.10;;
57309;SDS011;43153;50.984;18.204;2023-02-05T04:42:23;9.10;;;3.20;;
57309;SDS011;43153;50.984;18.204;2023-02-05T04:44:49;10.20;;;3.50;;
57309;SDS011;43153;50.984;18.204;2023-02-05T04:47:15;8.20;;;3.00;;
57309;SDS011;43153;50.984;18.204;2023-02-05T04:49:41;11.30;;;4.10;;
57309;SDS011;43153;50.984;18.204;2023-02-05T04:52:10;11.80;;;3.80;;
57309;SDS011;43153;50.984;18.204;2023-02-05T04:54:37;10.50;;;2.90;;
57309;SDS011;43153;50.984;18.204;2023-02-05T04:57:02;11.00;;;3.80;;
57309;SDS011;43153;50.984;18.204;2023-02-05T04:59:29;8.60;;;3.20;;
57309;SDS011;43153;50.984;18.204;2023-02-05T05:01:56;13.50;;;3.80;;
57309;SDS011;43153;50.984;18.204;2023-02-05T05:04:23;13.40;;;3.60;;
57309;SDS011;43153;50.984;18.204;2023-02-05T05:06:49;14.00;;;5.10;;
57309;SDS011;43153;50.984;18.204;2023-02-05T05:09:17;14.40;;;4.50;;
57309;SDS011;43153;50.984;18.204;2023-02-05T05:11:45;13.20;;;4.50;;
57309;SDS011;43153;50.984;18.204;2023-02-05T05:14:12;13.80;;;4.50;;
57309;SDS011;43153;50.984;18.204;2023-02-05T05:16:38;14.40;;;5.60;;
57309;SDS011;43153;50.984;18.204;2023-02-05T05:19:04;13.60;;;4.20;;
57309;SDS011;43153;50.984;18.204;2023-02-05T05:21:30;17.50;;;4.80;;
57309;SDS011;43153;50.984;18.204;2023-02-05T05:23:57;18.50;;;6.20;;
57309;SDS011;43153;50.984;18.204;2023-02-05T05:26:23;14.00;;;5.10;;
57309;SDS011;43153;50.984;18.204;2023-02-05T05:28:52;18.50;;;5.80;;
57309;SDS011;43153;50.984;18.204;2023-02-05T05:31:19;18.50;;;5.00;;
57309;SDS011;43153;50.984;18.204;2023-02-05T05:33:46;14.50;;;4.70;;
57309;SDS011;43153;50.984;18.204;2023-02-05T05:36:13;15.80;;;5.70;;
57309;SDS011;43153;50.984;18.204;2023-02-05T05:38:39;9.80;;;4.30;;
57309;SDS011;43153;50.984;18.204;2023-02-05T05:41:05;10.70;;;3.30;;
57309;SDS011;43153;50.984;18.204;2023-02-05T05:43:55;13.50;;;5.60;;
57309;SDS011;43153;50.984;18.204;2023-02-05T05:46:24;18.10;;;4.40;;
57309;SDS011;43153;50.984;18.204;2023-02-05T05:48:51;12.80;;;4.40;;
57309;SDS011;43153;50.984;18.204;2023-02-05T05:51:19;15.60;;;5.10;;
57309;SDS011;43153;50.984;18.204;2023-02-05T05:53:47;10.40;;;3.50;;
57309;SDS011;43153;50.984;18.204;2023-02-05T05:56:13;12.70;;;4.40;;
57309;SDS011;43153;50.984;18.204;2023-02-05T05:58:40;12.40;;;4.10;;
57309;SDS011;43153;50.984;18.204;2023-02-05T06:01:06;15.60;;;5.60;;
57309;SDS011;43153;50.984;18.204;2023-02-05T06:03:33;12.10;;;4.80;;
57309;SDS011;43153;50.984;18.204;2023-02-05T06:06:01;13.70;;;4.20;;
57309;SDS011;43153;50.984;18.204;2023-02-05T06:08:28;10.90;;;3.80;;
57309;SDS011;43153;50.984;18.204;2023-02-05T06:10:55;10.70;;;3.60;;
57309;SDS011;43153;50.984;18.204;2023-02-05T06:13:21;13.10;;;4.40;;
57309;SDS011;43153;50.984;18.204;2023-02-05T06:15:48;15.50;;;5.40;;
57309;SDS011;43153;50.984;18.204;2023-02-05T06:18:14;11.60;;;4.60;;
57309;SDS011;43153;50.984;18.204;2023-02-05T06:20:41;12.60;;;3.80;;
57309;SDS011;43153;50.984;18.204;2023-02-05T06:23:07;10.90;;;3.70;;
57309;SDS011;43153;50.984;18.204;2023-02-05T06:25:33;9.70;;;3.80;;
57309;SDS011;43153;50.984;18.204;2023-02-05T06:28:00;13.20;;;4.50;;
57309;SDS011;43153;50.984;18.204;2023-02-05T06:30:26;10.50;;;4.80;;
57309;SDS011;43153;50.984;18.204;2023-02-05T06:32:52;14.80;;;5.50;;
57309;SDS011;43153;50.984;18.204;2023-02-05T06:35:22;14.00;;;4.80;;
57309;SDS011;43153;50.984;18.204;2023-02-05T06:37:48;16.70;;;5.60;;
57309;SDS011;43153;50.984;18.204;2023-02-05T06:40:16;16.30;;;5.20;;
57309;SDS011;43153;50.984;18.204;2023-02-05T06:42:49;14.70;;;5.70;;
57309;SDS011;43153;50.984;18.204;2023-02-05T06:45:17;20.60;;;6.40;;
57309;SDS011;43153;50.984;18.204;2023-02-05T06:47:44;18.20;;;7.00;;
57309;SDS011;43153;50.984;18.204;2023-02-05T06:50:12;14.90;;;5.80;;
57309;SDS011;43153;50.984;18.204;2023-02-05T06:52:40;19.70;;;7.20;;
57309;SDS011;43153;50.984;18.204;2023-02-05T06:55:07;21.10;;;7.10;;
57309;SDS011;43153;50.984;18.204;2023-02-05T06:57:33;15.30;;;6.50;;
57309;SDS011;43153;50.984;18.204;2023-02-05T06:59:59;15.50;;;5.90;;
57309;SDS011;43153;50.984;18.204;2023-02-05T07:02:26;15.10;;;6.00;;
57309;SDS011;43153;50.984;18.204;2023-02-05T07:04:54;16.40;;;5.70;;
57309;SDS011;43153;50.984;18.204;2023-02-05T07:07:21;16.30;;;6.30;;
57309;SDS011;43153;50.984;18.204;2023-02-05T07:09:50;16.70;;;6.70;;
57309;SDS011;43153;50.984;18.204;2023-02-05T07:12:16;16.70;;;6.40;;
57309;SDS011;43153;50.984;18.204;2023-02-05T07:14:43;15.20;;;5.90;;
57309;SDS011;43153;50.984;18.204;2023-02-05T07:17:09;17.60;;;7.80;;
57309;SDS011;43153;50.984;18.204;2023-02-05T07:19:35;18.00;;;7.20;;
57309;SDS011;43153;50.984;18.204;2023-02-05T07:22:02;17.10;;;5.70;;
57309;SDS011;43153;50.984;18.204;2023-02-05T07:24:28;17.00;;;6.70;;
57309;SDS011;43153;50.984;18.204;2023-02-05T07:26:55;15.10;;;5.90;;
57309;SDS011;43153;50.984;18.204;2023-02-05T07:29:22;19.00;;;6.70;;
57309;SDS011;43153;50.984;18.204;2023-02-05T07:31:51;16.50;;;6.50;;
57309;SDS011;43153;50.984;18.204;2023-02-05T07:34:17;16.40;;;6.50;;
57309;SDS011;43153;50.984;18.204;2023-02-05T07:36:43;14.70;;;5.40;;
57309;SDS011;43153;50.984;18.204;2023-02-05T07:39:12;13.90;;;5.50;;
57309;SDS011;43153;50.984;18.204;2023-02-05T07:41:38;13.90;;;5.70;;
57309;SDS011;43153;50.984;18.204;2023-02-05T07:44:04;18.50;;;6.00;;
57309;SDS011;43153;50.984;18.204;2023-02-05T07:46:30;16.50;;;5.60;;
57309;SDS011;43153;50.984;18.204;2023-02-05T07:48:57;15.10;;;6.00;;
57309;SDS011;43153;50.984;18.204;2023-02-05T07:51:23;15.30;;;5.80;;
57309;SDS011;43153;50.984;18.204;2023-02-05T07:53:50;19.50;;;6.60;;
57309;SDS011;43153;50.984;18.204;2023-02-05T07:56:17;13.30;;;5.60;;
57309;SDS011;43153;50.984;18.204;2023-02-05T07:58:46;12.50;;;5.80;;
57309;SDS011;43153;50.984;18.204;2023-02-05T08:01:13;16.10;;;6.20;;
57309;SDS011;43153;50.984;18.204;2023-02-05T08:03:39;16.10;;;5.70;;
57309;SDS011;43153;50.984;18.204;2023-02-05T08:06:10;15.60;;;5.40;;
57309;SDS011;43153;50.984;18.204;2023-02-05T08:08:40;13.90;;;5.90;;
57309;SDS011;43153;50.984;18.204;2023-02-05T08:11:06;17.00;;;5.70;;
57309;SDS011;43153;50.984;18.204;2023-02-05T08:13:35;20.70;;;6.50;;
57309;SDS011;43153;50.984;18.204;2023-02-05T08:16:05;14.60;;;6.50;;
57309;SDS011;43153;50.984;18.204;2023-02-05T08:18:33;16.40;;;6.70;;
57309;SDS011;43153;50.984;18.204;2023-02-05T08:21:01;16.90;;;7.10;;
57309;SDS011;43153;50.984;18.204;2023-02-05T08:23:27;13.80;;;6.20;;
57309;SDS011;43153;50.984;18.204;2023-02-05T08:25:53;15.30;;;6.20;;
57309;SDS011;43153;50.984;18.204;2023-02-05T08:28:20;18.70;;;6.60;;
57309;SDS011;43153;50.984;18.204;2023-02-05T08:30:47;16.10;;;6.60;;
57309;SDS011;43153;50.984;18.204;2023-02-05T08:33:15;17.40;;;5.80;;
57309;SDS011;43153;50.984;18.204;2023-02-05T08:35:44;15.80;;;6.90;;
57309;SDS011;43153;50.984;18.204;2023-02-05T08:38:11;17.10;;;7.10;;
57309;SDS011;43153;50.984;18.204;2023-02-05T08:40:37;16.90;;;7.30;;
57309;SDS011;43153;50.984;18.204;2023-02-05T08:43:03;15.60;;;6.20;;
57309;SDS011;43153;50.984;18.204;2023-02-05T08:45:30;17.40;;;7.10;;
57309;SDS011;43153;50.984;18.204;2023-02-05T08:47:56;16.50;;;5.90;;
57309;SDS011;43153;50.984;18.204;2023-02-05T08:50:23;17.50;;;7.00;;
57309;SDS011;43153;50.984;18.204;2023-02-05T08:52:49;13.40;;;5.70;;
57309;SDS011;43153;50.984;18.204;2023-02-05T08:55:15;13.30;;;5.50;;
57309;SDS011;43153;50.984;18.204;2023-02-05T08:57:42;12.40;;;4.80;;
57309;SDS011;43153;50.984;18.204;2023-02-05T09:00:10;13.90;;;5.70;;
57309;SDS011;43153;50.984;18.204;2023-02-05T09:02:37;14.50;;;5.80;;
57309;SDS011;43153;50.984;18.204;2023-02-05T09:05:06;18.40;;;6.90;;
57309;SDS011;43153;50.984;18.204;2023-02-05T09:07:33;13.60;;;5.30;;
57309;SDS011;43153;50.984;18.204;2023-02-05T09:09:59;15.80;;;5.70;;
57309;SDS011;43153;50.984;18.204;2023-02-05T09:12:25;16.20;;;6.50;;
57309;SDS011;43153;50.984;18.204;2023-02-05T09:14:51;19.10;;;6.50;;
57309;SDS011;43153;50.984;18.204;2023-02-05T09:17:18;15.00;;;6.40;;
57309;SDS011;43153;50.984;18.204;2023-02-05T09:19:44;15.80;;;6.70;;
57309;SDS011;43153;50.984;18.204;2023-02-05T09:22:11;15.90;;;6.20;;
57309;SDS011;43153;50.984;18.204;2023-02-05T09:24:37;16.40;;;5.60;;
57309;SDS011;43153;50.984;18.204;2023-02-05T09:27:03;11.70;;;5.30;;
57309;SDS011;43153;50.984;18.204;2023-02-05T09:29:29;16.20;;;5.10;;
57309;SDS011;43153;50.984;18.204;2023-02-05T09:31:55;18.30;;;6.00;;
57309;SDS011;43153;50.984;18.204;2023-02-05T09:34:23;16.20;;;6.10;;
57309;SDS011;43153;50.984;18.204;2023-02-05T09:36:49;14.90;;;6.20;;
57309;SDS011;43153;50.984;18.204;2023-02-05T09:39:17;16.50;;;6.20;;
57309;SDS011;43153;50.984;18.204;2023-02-05T09:49:42;16.90;;;7.00;;
57309;SDS011;43153;50.984;18.204;2023-02-05T09:52:11;15.10;;;6.00;;
57309;SDS011;43153;50.984;18.204;2023-02-05T09:54:41;16.70;;;6.90;;
57309;SDS011;43153;50.984;18.204;2023-02-05T09:57:13;15.10;;;5.90;;
57309;SDS011;43153;50.984;18.204;2023-02-05T09:59:42;12.40;;;4.30;;
57309;SDS011;43153;50.984;18.204;2023-02-05T10:05:15;12.90;;;5.50;;
57309;SDS011;43153;50.984;18.204;2023-02-05T10:10:35;11.70;;;3.60;;
57309;SDS011;43153;50.984;18.204;2023-02-05T10:13:28;9.40;;;3.30;;
57309;SDS011;43153;50.984;18.204;2023-02-05T10:24:36;11.10;;;3.70;;
57309;SDS011;43153;50.984;18.204;2023-02-05T10:27:24;10.40;;;3.40;;
57309;SDS011;43153;50.984;18.204;2023-02-05T10:30:28;13.50;;;3.10;;
57309;SDS011;43153;50.984;18.204;2023-02-05T10:36:02;12.60;;;3.80;;
57309;SDS011;43153;50.984;18.204;2023-02-05T10:38:34;9.40;;;3.00;;
57309;SDS011;43153;50.984;18.204;2023-02-05T10:44:20;12.90;;;4.30;;
57309;SDS011;43153;50.984;18.204;2023-02-05T10:46:51;11.10;;;3.10;;
57309;SDS011;43153;50.984;18.204;2023-02-05T10:51:53;8.00;;;2.80;;
57309;SDS011;43153;50.984;18.204;2023-02-05T10:54:25;9.70;;;3.60;;
57309;SDS011;43153;50.984;18.204;2023-02-05T10:56:56;10.80;;;3.40;;
57309;SDS011;43153;50.984;18.204;2023-02-05T10:59:26;11.40;;;4.00;;
57309;SDS011;43153;50.984;18.204;2023-02-05T11:02:07;14.30;;;5.40;;
57309;SDS011;43153;50.984;18.204;2023-02-05T11:04:34;12.50;;;5.10;;
57309;SDS011;43153;50.984;18.204;2023-02-05T11:07:04;13.40;;;4.90;;
57309;SDS011;43153;50.984;18.204;2023-02-05T11:09:36;13.50;;;4.80;;
57309;SDS011;43153;50.984;18.204;2023-02-05T11:12:03;13.20;;;5.00;;
57309;SDS011;43153;50.984;18.204;2023-02-05T11:14:54;13.20;;;5.10;;
57309;SDS011;43153;50.984;18.204;2023-02-05T11:17:23;13.70;;;4.80;;
57309;SDS011;43153;50.984;18.204;2023-02-05T11:22:41;9.70;;;2.60;;
57309;SDS011;43153;50.984;18.204;2023-02-05T11:28:02;8.00;;;2.40;;
57309;SDS011;43153;50.984;18.204;2023-02-05T11:30:32;8.70;;;2.40;;
57309;SDS011;43153;50.984;18.204;2023-02-05T11:38:27;8.70;;;2.40;;
57309;SDS011;43153;50.984;18.204;2023-02-05T11:41:11;8.90;;;1.60;;
57309;SDS011;43153;50.984;18.204;2023-02-05T11:44:16;7.90;;;2.20;;
57309;SDS011;43153;50.984;18.204;2023-02-05T11:46:49;5.60;;;1.80;;
57309;SDS011;43153;50.984;18.204;2023-02-05T11:49:21;7.70;;;2.10;;
57309;SDS011;43153;50.984;18.204;2023-02-05T11:51:51;5.80;;;1.40;;
57309;SDS011;43153;50.984;18.204;2023-02-05T11:54:21;7.40;;;2.10;;
57309;SDS011;43153;50.984;18.204;2023-02-05T11:59:26;5.80;;;2.10;;
57309;SDS011;43153;50.984;18.204;2023-02-05T12:01:53;9.40;;;3.60;;
57309;SDS011;43153;50.984;18.204;2023-02-05T12:04:20;11.70;;;2.90;;
57309;SDS011;43153;50.984;18.204;2023-02-05T12:06:54;9.10;;;3.20;;
57309;SDS011;43153;50.984;18.204;2023-02-05T12:09:23;9.20;;;2.70;;
57309;SDS011;43153;50.984;18.204;2023-02-05T12:14:52;9.50;;;3.00;;
57309;SDS011;43153;50.984;18.204;2023-02-05T12:36:47;12.90;;;3.60;;
57309;SDS011;43153;50.984;18.204;2023-02-05T12:45:47;8.00;;;2.40;;
57309;SDS011;43153;50.984;18.204;2023-02-05T12:51:08;7.80;;;2.20;;
57309;SDS011;43153;50.984;18.204;2023-02-05T12:57:02;9.00;;;3.00;;
57309;SDS011;43153;50.984;18.204;2023-02-05T12:59:43;18.30;;;5.20;;
57309;SDS011;43153;50.984;18.204;2023-02-05T13:02:16;11.00;;;3.70;;
57309;SDS011;43153;50.984;18.204;2023-02-05T13:05:19;13.40;;;3.10;;
57309;SDS011;43153;50.984;18.204;2023-02-05T13:07:56;9.10;;;2.90;;
57309;SDS011;43153;50.984;18.204;2023-02-05T13:13:14;11.00;;;3.40;;
57309;SDS011;43153;50.984;18.204;2023-02-05T13:15:43;12.00;;;4.00;;
57309;SDS011;43153;50.984;18.204;2023-02-05T13:21:17;11.80;;;3.70;;
57309;SDS011;43153;50.984;18.204;2023-02-05T13:27:21;10.20;;;3.00;;
57309;SDS011;43153;50.984;18.204;2023-02-05T13:30:30;9.10;;;2.70;;
57309;SDS011;43153;50.984;18.204;2023-02-05T13:33:05;11.80;;;4.30;;
57309;SDS011;43153;50.984;18.204;2023-02-05T13:36:01;43.50;;;13.20;;
57309;SDS011;43153;50.984;18.204;2023-02-05T13:58:12;11.70;;;3.40;;
57309;SDS011;43153;50.984;18.204;2023-02-05T14:01:04;15.80;;;5.10;;
57309;SDS011;43153;50.984;18.204;2023-02-05T14:03:38;9.90;;;3.50;;
57309;SDS011;43153;50.984;18.204;2023-02-05T14:09:04;10.60;;;3.30;;
57309;SDS011;43153;50.984;18.204;2023-02-05T14:14:39;13.40;;;4.00;;
57309;SDS011;43153;50.984;18.204;2023-02-05T14:20:02;10.10;;;3.60;;
57309;SDS011;43153;50.984;18.204;2023-02-05T14:22:40;21.80;;;6.60;;
57309;SDS011;43153;50.984;18.204;2023-02-05T14:38:52;13.10;;;4.20;;
57309;SDS011;43153;50.984;18.204;2023-02-05T14:41:27;11.70;;;3.90;;
57309;SDS011;43153;50.984;18.204;2023-02-05T14:44:27;10.50;;;2.80;;
57309;SDS011;43153;50.984;18.204;2023-02-05T14:52:05;13.00;;;3.80;;
57309;SDS011;43153;50.984;18.204;2023-02-05T15:19:51;10.50;;;3.90;;
57309;SDS011;43153;50.984;18.204;2023-02-05T15:22:34;13.70;;;4.70;;
57309;SDS011;43153;50.984;18.204;2023-02-05T15:25:17;11.30;;;4.60;;
57309;SDS011;43153;50.984;18.204;2023-02-05T15:28:13;12.80;;;4.40;;
57309;SDS011;43153;50.984;18.204;2023-02-05T15:31:17;13.70;;;4.80;;
57309;SDS011;43153;50.984;18.204;2023-02-05T15:42:46;11.20;;;3.60;;
57309;SDS011;43153;50.984;18.204;2023-02-05T15:45:15;16.00;;;7.30;;
57309;SDS011;43153;50.984;18.204;2023-02-05T15:47:41;12.00;;;3.90;;
57309;SDS011;43153;50.984;18.204;2023-02-05T15:50:08;11.50;;;3.90;;
57309;SDS011;43153;50.984;18.204;2023-02-05T15:52:39;10.60;;;3.60;;
57309;SDS011;43153;50.984;18.204;2023-02-05T15:55:15;12.20;;;4.20;;
57309;SDS011;43153;50.984;18.204;2023-02-05T15:57:47;12.70;;;4.40;;
57309;SDS011;43153;50.984;18.204;2023-02-05T16:00:18;12.00;;;3.70;;
57309;SDS011;43153;50.984;18.204;2023-02-05T16:02:54;13.20;;;5.00;;
57309;SDS011;43153;50.984;18.204;2023-02-05T16:05:22;13.30;;;4.10;;
57309;SDS011;43153;50.984;18.204;2023-02-05T16:07:53;14.80;;;4.70;;
57309;SDS011;43153;50.984;18.204;2023-02-05T16:10:28;12.30;;;4.10;;
57309;SDS011;43153;50.984;18.204;2023-02-05T16:15:28;12.70;;;4.60;;
57309;SDS011;43153;50.984;18.204;2023-02-05T16:17:57;12.30;;;3.90;;
57309;SDS011;43153;50.984;18.204;2023-02-05T16:20:28;13.10;;;4.00;;
57309;SDS011;43153;50.984;18.204;2023-02-05T16:27:56;15.90;;;5.10;;
57309;SDS011;43153;50.984;18.204;2023-02-05T16:32:51;14.90;;;4.80;;
57309;SDS011;43153;50.984;18.204;2023-02-05T16:35:23;11.70;;;4.30;;
57309;SDS011;43153;50.984;18.204;2023-02-05T16:37:52;13.30;;;5.20;;
57309;SDS011;43153;50.984;18.204;2023-02-05T16:40:28;17.40;;;5.40;;
57309;SDS011;43153;50.984;18.204;2023-02-05T16:51:01;15.20;;;4.90;;
57309;SDS011;43153;50.984;18.204;2023-02-05T16:53:30;17.40;;;4.60;;
57309;SDS011;43153;50.984;18.204;2023-02-05T16:56:11;16.80;;;5.10;;
57309;SDS011;43153;50.984;18.204;2023-02-05T16:58:47;13.60;;;5.40;;
57309;SDS011;43153;50.984;18.204;2023-02-05T17:01:44;14.60;;;5.20;;
57309;SDS011;43153;50.984;18.204;2023-02-05T17:04:18;18.20;;;5.30;;
57309;SDS011;43153;50.984;18.204;2023-02-05T17:06:51;16.70;;;6.00;;
57309;SDS011;43153;50.984;18.204;2023-02-05T17:09:29;15.50;;;5.20;;
57309;SDS011;43153;50.984;18.204;2023-02-05T17:14:55;26.40;;;9.40;;
57309;SDS011;43153;50.984;18.204;2023-02-05T17:17:25;106.60;;;36.20;;
57309;SDS011;43153;50.984;18.204;2023-02-05T17:23:05;175.80;;;60.00;;
57309;SDS011;43153;50.984;18.204;2023-02-05T17:28:16;92.10;;;31.50;;
57309;SDS011;43153;50.984;18.204;2023-02-05T17:30:45;122.00;;;37.90;;
57309;SDS011;43153;50.984;18.204;2023-02-05T17:33:24;121.50;;;40.50;;
57309;SDS011;43153;50.984;18.204;2023-02-05T17:35:51;145.20;;;43.90;;
57309;SDS011;43153;50.984;18.204;2023-02-05T17:38:17;133.90;;;41.50;;
57309;SDS011;43153;50.984;18.204;2023-02-05T17:40:48;148.30;;;40.80;;
57309;SDS011;43153;50.984;18.204;2023-02-05T17:43:14;220.60;;;64.30;;
57309;SDS011;43153;50.984;18.204;2023-02-05T17:45:42;168.90;;;48.20;;
57309;SDS011;43153;50.984;18.204;2023-02-05T17:48:10;122.70;;;39.90;;
57309;SDS011;43153;50.984;18.204;2023-02-05T17:50:37;184.80;;;54.10;;
57309;SDS011;43153;50.984;18.204;2023-02-05T17:53:03;134.80;;;40.50;;
57309;SDS011;43153;50.984;18.204;2023-02-05T17:55:30;118.90;;;38.50;;
57309;SDS011;43153;50.984;18.204;2023-02-05T17:57:56;119.40;;;37.00;;
57309;SDS011;43153;50.984;18.204;2023-02-05T18:00:32;179.90;;;63.70;;
57309;SDS011;43153;50.984;18.204;2023-02-05T18:02:58;224.50;;;74.70;;
57309;SDS011;43153;50.984;18.204;2023-02-05T18:05:26;225.10;;;80.10;;
57309;SDS011;43153;50.984;18.204;2023-02-05T18:07:57;224.90;;;91.50;;
57309;SDS011;43153;50.984;18.204;2023-02-05T18:10:25;198.60;;;78.40;;
57309;SDS011;43153;50.984;18.204;2023-02-05T18:12:53;175.70;;;68.90;;
57309;SDS011;43153;50.984;18.204;2023-02-05T18:15:21;161.70;;;62.50;;
57309;SDS011;43153;50.984;18.204;2023-02-05T18:17:50;193.00;;;74.40;;
57309;SDS011;43153;50.984;18.204;2023-02-05T18:20:16;187.90;;;73.10;;
57309;SDS011;43153;50.984;18.204;2023-02-05T18:22:48;157.40;;;62.30;;
57309;SDS011;43153;50.984;18.204;2023-02-05T18:25:19;167.30;;;66.40;;
57309;SDS011;43153;50.984;18.204;2023-02-05T18:27:48;146.90;;;62.90;;
57309;SDS011;43153;50.984;18.204;2023-02-05T18:30:14;160.20;;;70.70;;